createdAt,value
2023-12-09T00:03:17.180Z,6.63
2023-12-09T00:07:19.298Z,6.64
2023-12-09T00:11:21.480Z,6.65
2023-12-09T00:15:23.118Z,6.63
2023-12-09T00:19:24.863Z,6.60
2023-12-09T00:23:27.330Z,6.61
2023-12-09T00:27:29.101Z,6.61
2023-12-09T00:31:31.956Z,6.63
2023-12-09T00:35:33.485Z,6.60
2023-12-09T00:39:35.152Z,6.57
2023-12-09T00:43:36.794Z,6.57
2023-12-09T00:47:38.421Z,6.55
2023-12-09T00:51:40.458Z,6.55
2023-12-09T00:55:42.141Z,6.57
2023-12-09T00:59:43.801Z,6.55
2023-12-09T01:03:45.513Z,6.55
2023-12-09T01:07:47.415Z,6.57
2023-12-09T01:11:49.794Z,6.60
2023-12-09T01:15:52.232Z,6.60
2023-12-09T01:19:53.886Z,6.61
2023-12-09T01:23:55.498Z,6.61
2023-12-09T01:27:57.114Z,6.63
2023-12-09T01:31:58.645Z,6.63
2023-12-09T01:36:00.297Z,6.65
2023-12-09T01:40:01.991Z,6.64
2023-12-09T01:44:03.990Z,6.72
2023-12-09T01:48:06.179Z,6.65
2023-12-09T01:52:07.917Z,6.64
2023-12-09T01:56:12.177Z,6.64
2023-12-09T02:00:14.224Z,6.65
2023-12-09T02:04:16.546Z,6.68
2023-12-09T02:08:18.166Z,6.72
2023-12-09T02:12:30.279Z,6.72
2023-12-09T02:16:44.779Z,6.72
2023-12-09T02:20:46.379Z,6.75
2023-12-09T02:24:48.047Z,6.76
2023-12-09T02:29:00.138Z,6.79
2023-12-09T02:33:03.817Z,6.79
2023-12-09T02:37:07.019Z,6.79
2023-12-09T02:41:09.808Z,6.81
2023-12-09T02:45:12.329Z,6.82
2023-12-09T02:49:14.156Z,6.82
2023-12-09T02:53:15.780Z,6.82
2023-12-09T02:57:17.432Z,6.82
2023-12-09T03:01:19.055Z,6.83
2023-12-09T03:05:20.773Z,6.82
2023-12-09T03:09:22.527Z,6.83
2023-12-09T03:13:24.408Z,6.86
2023-12-09T03:17:26.028Z,6.89
2023-12-09T03:21:27.660Z,6.89
2023-12-09T03:25:31.466Z,6.90
2023-12-09T03:29:33.051Z,6.91
2023-12-09T03:33:34.858Z,6.91
2023-12-09T03:37:36.488Z,6.91
2023-12-09T03:41:38.297Z,6.89
2023-12-09T03:45:41.993Z,6.86
2023-12-09T03:49:43.673Z,6.90
2023-12-09T03:53:45.401Z,6.93
2023-12-09T03:57:47.120Z,6.96
2023-12-09T04:01:52.856Z,6.99
2023-12-09T04:05:54.879Z,7.01
2023-12-09T04:09:56.686Z,7.07
2023-12-09T04:13:58.265Z,7.09
2023-12-09T04:18:00.109Z,7.09
2023-12-09T04:22:01.897Z,7.12
2023-12-09T04:26:03.745Z,7.12
2023-12-09T04:30:06.561Z,7.12
2023-12-09T04:34:08.291Z,7.12
2023-12-09T04:38:09.953Z,7.12
2023-12-09T04:42:11.573Z,7.14
2023-12-09T04:46:13.278Z,7.15
2023-12-09T04:50:15.254Z,7.15
2023-12-09T04:54:16.869Z,7.14
2023-12-09T04:58:18.489Z,7.15
2023-12-09T05:02:21.498Z,7.16
2023-12-09T05:06:23.203Z,7.16
2023-12-09T05:10:24.863Z,7.16
2023-12-09T05:14:26.490Z,7.18
2023-12-09T05:18:28.214Z,7.18
2023-12-09T05:22:30.098Z,7.19
2023-12-09T05:26:31.817Z,7.21
2023-12-09T05:30:33.601Z,7.21
2023-12-09T05:34:35.316Z,7.21
2023-12-09T05:38:37.169Z,7.23
2023-12-09T05:42:38.729Z,7.24
2023-12-09T05:46:41.324Z,7.24
2023-12-09T05:50:42.962Z,7.24
2023-12-09T05:54:44.485Z,7.24
2023-12-09T05:58:46.045Z,7.24
2023-12-09T06:02:47.787Z,7.23
2023-12-09T06:06:49.468Z,7.23
2023-12-09T06:10:51.859Z,7.21
2023-12-09T06:14:54.493Z,7.21
2023-12-09T06:18:56.192Z,7.21
2023-12-09T06:22:57.803Z,7.21
2023-12-09T06:26:59.459Z,7.19
2023-12-09T06:31:02.222Z,7.23
2023-12-09T06:35:04.054Z,7.21
2023-12-09T06:39:06.723Z,7.19
2023-12-09T06:43:08.318Z,7.19
2023-12-09T06:47:11.318Z,7.21
2023-12-09T06:51:17.325Z,7.19
2023-12-09T06:55:18.969Z,7.14
2023-12-09T06:59:20.537Z,7.09
2023-12-09T07:03:22.641Z,7.05
2023-12-09T07:07:24.288Z,7.01
2023-12-09T07:11:26.087Z,6.99
2023-12-09T07:15:27.862Z,6.99
2023-12-09T07:19:29.655Z,6.97
2023-12-09T07:23:31.345Z,6.97
2023-12-09T07:27:33.013Z,7.00
2023-12-09T07:31:35.225Z,7.04
2023-12-09T07:35:36.821Z,7.11
2023-12-09T07:39:38.509Z,7.14
2023-12-09T07:43:41.099Z,7.16
2023-12-09T07:47:42.890Z,7.23
2023-12-09T07:51:44.506Z,7.26
2023-12-09T07:55:46.100Z,7.29
2023-12-09T07:59:47.638Z,7.32
2023-12-09T08:03:49.396Z,7.33
2023-12-09T08:07:52.065Z,7.36
2023-12-09T08:11:54.010Z,7.37
2023-12-09T08:15:55.605Z,7.42
2023-12-09T08:19:57.301Z,7.48
2023-12-09T08:23:59.024Z,7.54
2023-12-09T08:28:00.703Z,7.58
2023-12-09T08:32:02.534Z,7.63
2023-12-09T08:36:04.281Z,7.67
2023-12-09T08:40:12.010Z,7.71
2023-12-09T08:44:13.901Z,7.74
2023-12-09T08:48:15.762Z,7.74
2023-12-09T08:52:19.497Z,7.79
2023-12-09T08:56:21.244Z,7.85
2023-12-09T09:00:27.028Z,7.88
2023-12-09T09:04:28.891Z,7.92
2023-12-09T09:08:33.079Z,7.96
2023-12-09T09:12:34.969Z,7.96
2023-12-09T09:16:36.610Z,7.99
2023-12-09T09:20:38.254Z,8.03
2023-12-09T09:24:40.106Z,8.07
2023-12-09T09:28:41.716Z,8.10
2023-12-09T09:32:43.453Z,8.12
2023-12-09T09:36:46.680Z,8.14
2023-12-09T09:40:48.537Z,8.17
2023-12-09T09:45:28.771Z,8.21
2023-12-09T09:49:36.360Z,8.28
2023-12-09T09:53:56.594Z,8.32
2023-12-09T09:57:58.410Z,8.37
2023-12-09T10:02:04.200Z,8.37
2023-12-09T10:06:06.608Z,8.42
2023-12-09T10:10:08.820Z,8.42
2023-12-09T10:14:10.448Z,8.45
2023-12-09T10:18:15.549Z,8.49
2023-12-09T10:22:17.281Z,8.50
2023-12-09T10:26:19.377Z,8.50
2023-12-09T10:30:21.110Z,8.52
2023-12-09T10:34:22.836Z,8.50
2023-12-09T10:38:24.550Z,8.50
2023-12-09T10:42:26.630Z,8.49
2023-12-09T10:46:28.483Z,8.54
2023-12-09T10:50:32.004Z,8.54
2023-12-09T10:54:34.202Z,8.57
2023-12-09T10:58:39.391Z,8.58
2023-12-09T11:02:42.416Z,8.61
2023-12-09T11:06:46.422Z,8.65
2023-12-09T11:10:49.430Z,8.67
2023-12-09T11:14:50.988Z,8.76
2023-12-09T11:18:58.335Z,8.80
2023-12-09T11:23:00.051Z,8.82
2023-12-09T11:27:01.673Z,8.86
2023-12-09T11:31:03.266Z,8.89
2023-12-09T11:35:05.552Z,8.88
2023-12-09T11:39:11.012Z,8.91
2023-12-09T11:43:13.161Z,8.96
2023-12-09T11:47:15.668Z,8.98
2023-12-09T11:51:17.399Z,9.04
2023-12-09T11:55:20.604Z,9.10
2023-12-09T11:59:22.848Z,9.10
2023-12-09T12:03:24.473Z,9.10
2023-12-09T12:07:26.158Z,9.13
2023-12-09T12:11:28.229Z,9.19
2023-12-09T12:15:29.912Z,9.26
2023-12-09T12:19:31.655Z,9.34
2023-12-09T12:23:33.858Z,9.32
2023-12-09T12:27:37.003Z,9.35
2023-12-09T12:31:39.034Z,9.37
2023-12-09T12:35:40.689Z,9.40
2023-12-09T12:39:43.421Z,9.42
2023-12-09T12:43:45.468Z,9.48
2023-12-09T12:47:49.115Z,9.49
2023-12-09T12:51:52.065Z,9.49
2023-12-09T12:55:56.176Z,9.49
2023-12-09T13:00:03.681Z,9.44
2023-12-09T13:04:09.995Z,9.41
2023-12-09T13:08:11.609Z,9.38
2023-12-09T13:12:13.854Z,9.32
2023-12-09T13:16:15.607Z,9.30
2023-12-09T13:20:17.712Z,9.27
2023-12-09T13:24:19.581Z,9.30
2023-12-09T13:28:21.374Z,9.26
2023-12-09T13:32:23.021Z,9.22
2023-12-09T13:36:25.045Z,9.20
2023-12-09T13:40:26.896Z,9.17
2023-12-09T13:44:28.818Z,9.15
2023-12-09T13:48:30.518Z,9.12
2023-12-09T13:52:33.004Z,9.06
2023-12-09T13:56:35.932Z,9.06
2023-12-09T14:00:39.195Z,9.00
2023-12-09T14:04:41.039Z,8.97
2023-12-09T14:08:42.684Z,8.94
2023-12-09T14:12:45.454Z,8.94
2023-12-09T14:16:47.480Z,8.96
2023-12-09T14:20:49.208Z,8.96
2023-12-09T14:24:50.963Z,8.91
2023-12-09T14:28:52.746Z,8.94
2023-12-09T14:32:54.561Z,8.91
2023-12-09T14:36:56.202Z,8.88
2023-12-09T14:40:57.950Z,8.85
2023-12-09T14:44:59.618Z,8.78
2023-12-09T14:49:01.539Z,8.76
2023-12-09T14:53:03.933Z,8.76
2023-12-09T14:57:06.089Z,8.76
2023-12-09T15:01:07.817Z,8.75
2023-12-09T15:05:09.603Z,8.73
2023-12-09T15:09:11.487Z,8.70
2023-12-09T15:13:13.218Z,8.68
2023-12-09T15:17:14.876Z,8.65
2023-12-09T15:21:19.459Z,8.63
2023-12-09T15:25:21.286Z,8.61
2023-12-09T15:29:23.105Z,8.61
2023-12-09T15:33:26.614Z,8.55
2023-12-09T15:37:33.264Z,8.55
2023-12-09T15:41:34.998Z,8.55
2023-12-09T15:45:36.672Z,8.52
2023-12-09T15:49:38.518Z,8.50
2023-12-09T15:53:40.389Z,8.47
2023-12-09T15:57:42.277Z,8.46
2023-12-09T16:01:44.269Z,8.42
2023-12-09T16:05:48.367Z,8.39
2023-12-09T16:09:52.986Z,8.37
2023-12-09T16:13:59.588Z,8.36
2023-12-09T16:18:01.592Z,8.36
2023-12-09T16:22:03.346Z,8.34
2023-12-09T16:26:06.760Z,8.31
2023-12-09T16:30:08.946Z,8.28
2023-12-09T16:34:10.739Z,8.22
2023-12-09T16:38:12.446Z,8.21
2023-12-09T16:42:14.111Z,8.18
2023-12-09T16:46:15.732Z,8.17
2023-12-09T16:50:18.000Z,8.17
2023-12-09T16:54:21.847Z,8.17
2023-12-09T16:58:23.557Z,8.14
2023-12-09T17:02:27.208Z,8.17
2023-12-09T17:06:29.087Z,8.14
2023-12-09T17:10:30.808Z,8.17
2023-12-09T17:14:34.267Z,8.24
2023-12-09T17:18:36.113Z,8.40
2023-12-09T17:22:37.793Z,8.54
2023-12-09T17:26:39.510Z,8.49
2023-12-09T17:30:41.313Z,8.40
2023-12-09T17:34:43.172Z,8.34
2023-12-09T17:38:44.904Z,8.29
2023-12-09T17:42:46.673Z,8.24
2023-12-09T17:46:48.331Z,8.18
2023-12-09T17:50:50.767Z,8.13
2023-12-09T17:54:52.404Z,8.09
2023-12-09T17:58:54.763Z,8.07
2023-12-09T18:02:56.662Z,8.02
2023-12-09T18:06:58.369Z,7.96
2023-12-09T18:11:00.046Z,7.96
2023-12-09T18:15:01.736Z,7.94
2023-12-09T18:19:04.622Z,7.92
2023-12-09T18:23:06.302Z,7.92
2023-12-09T18:27:08.324Z,7.91
2023-12-09T18:31:13.187Z,7.89
2023-12-09T18:35:15.000Z,7.88
2023-12-09T18:39:20.618Z,7.89
2023-12-09T18:43:22.294Z,7.89
2023-12-09T18:47:23.929Z,7.91
2023-12-09T18:51:25.601Z,7.91
2023-12-09T18:55:27.334Z,7.91
2023-12-09T18:59:29.002Z,7.92
2023-12-09T19:03:30.865Z,7.94
2023-12-09T19:07:32.569Z,7.96
2023-12-09T19:11:35.509Z,7.92
2023-12-09T19:15:37.606Z,8.03
2023-12-09T19:19:39.582Z,8.09
2023-12-09T19:23:41.314Z,8.12
2023-12-09T19:27:42.998Z,8.14
2023-12-09T19:31:44.803Z,8.17
2023-12-09T19:35:46.502Z,8.18
2023-12-09T19:39:48.274Z,8.22
2023-12-09T19:43:49.962Z,8.24
2023-12-09T19:47:55.807Z,8.25
2023-12-09T19:51:58.000Z,8.27
2023-12-09T19:55:59.732Z,8.29
2023-12-09T20:00:01.498Z,8.32
2023-12-09T20:04:05.886Z,8.34
2023-12-09T20:08:07.562Z,8.37
2023-12-09T20:12:09.800Z,8.40
2023-12-09T20:16:11.525Z,8.42
2023-12-09T20:20:13.421Z,8.43
2023-12-09T20:24:15.119Z,8.49
2023-12-09T20:28:16.816Z,8.52
2023-12-09T20:32:18.528Z,8.55
2023-12-09T20:36:21.826Z,8.61
2023-12-09T20:40:23.461Z,8.65
2023-12-09T20:44:25.133Z,8.70
2023-12-09T20:48:26.788Z,8.75
2023-12-09T20:52:28.648Z,8.78
2023-12-09T20:56:30.477Z,8.79
2023-12-09T21:00:32.263Z,8.80
2023-12-09T21:04:33.941Z,8.79
2023-12-09T21:08:39.647Z,8.82
2023-12-09T21:12:41.314Z,8.83
2023-12-09T21:16:43.577Z,8.86
2023-12-09T21:20:45.915Z,8.88
2023-12-09T21:24:48.618Z,8.89
2023-12-09T21:28:50.460Z,8.91
2023-12-09T21:32:52.309Z,8.89
2023-12-09T21:36:53.967Z,8.89
2023-12-09T21:40:55.648Z,8.88
2023-12-09T21:44:57.738Z,8.89
2023-12-09T21:48:59.760Z,8.93
2023-12-09T21:53:01.475Z,8.96
2023-12-09T21:57:03.292Z,8.98
2023-12-09T22:01:05.298Z,9.00
2023-12-09T22:05:07.647Z,9.01
2023-12-09T22:09:09.420Z,9.03
2023-12-09T22:13:11.153Z,9.04
2023-12-09T22:17:12.960Z,9.12
2023-12-09T22:21:14.663Z,9.22
2023-12-09T22:25:16.253Z,9.20
2023-12-09T22:29:17.942Z,9.31
2023-12-09T22:33:19.617Z,9.44
2023-12-09T22:37:22.803Z,9.55
2023-12-09T22:41:24.980Z,9.71
2023-12-09T22:45:26.645Z,9.83
2023-12-09T22:49:28.522Z,9.91
2023-12-09T22:53:30.351Z,9.93
2023-12-09T22:57:32.151Z,9.96
2023-12-09T23:01:34.174Z,9.99
2023-12-09T23:05:38.119Z,9.95
2023-12-09T23:09:39.932Z,9.95
2023-12-09T23:13:41.913Z,9.99
2023-12-09T23:17:43.545Z,9.99
2023-12-09T23:21:45.384Z,9.98
2023-12-09T23:25:47.194Z,9.98
2023-12-09T23:29:48.784Z,10.02
2023-12-09T23:33:50.509Z,10.02
2023-12-09T23:37:52.425Z,10.07
2023-12-09T23:41:54.035Z,10.09
2023-12-09T23:45:55.937Z,10.14
2023-12-09T23:49:57.578Z,10.22
2023-12-09T23:53:59.173Z,10.22
2023-12-09T23:58:00.789Z,10.25
